createdAt,value
2018-12-29T00:01:29.879Z,-0.90
2018-12-29T00:03:59.296Z,-1.00
2018-12-29T00:06:28.646Z,-0.90
2018-12-29T00:08:57.996Z,-0.90
2018-12-29T00:11:27.366Z,-0.90
2018-12-29T00:13:56.712Z,-0.90
2018-12-29T00:16:26.079Z,-0.90
2018-12-29T00:18:55.422Z,-0.90
2018-12-29T00:21:24.799Z,-0.90
2018-12-29T00:23:54.147Z,-0.90
2018-12-29T00:26:23.529Z,-0.90
2018-12-29T00:28:52.872Z,-1.00
2018-12-29T00:31:22.243Z,-1.00
2018-12-29T00:33:51.578Z,-1.00
2018-12-29T00:36:20.964Z,-1.00
2018-12-29T00:38:50.313Z,-1.00
2018-12-29T00:41:19.696Z,-1.00
2018-12-29T00:43:49.039Z,-0.90
2018-12-29T00:46:18.427Z,-0.90
2018-12-29T00:48:47.775Z,-0.90
2018-12-29T00:51:17.151Z,-0.90
2018-12-29T00:53:46.559Z,-0.80
2018-12-29T00:56:15.875Z,-0.80
2018-12-29T00:58:45.219Z,-0.80
2018-12-29T01:01:14.603Z,-0.70
2018-12-29T01:03:43.980Z,-0.70
2018-12-29T01:06:13.406Z,-0.80
2018-12-29T01:08:42.762Z,-0.80
2018-12-29T01:11:12.131Z,-0.80
2018-12-29T01:13:41.487Z,-0.80
2018-12-29T01:16:10.876Z,-0.80
2018-12-29T01:18:40.243Z,-0.80
2018-12-29T01:21:09.624Z,-0.80
2018-12-29T01:23:38.967Z,-0.80
2018-12-29T01:26:08.319Z,-0.80
2018-12-29T01:28:37.699Z,-0.80
2018-12-29T01:31:07.058Z,-0.80
2018-12-29T01:33:36.436Z,-0.70
2018-12-29T01:36:05.790Z,-0.70
2018-12-29T01:38:35.167Z,-0.70
2018-12-29T01:41:04.521Z,-0.70
2018-12-29T01:43:33.946Z,-0.70
2018-12-29T01:46:03.267Z,-0.70
2018-12-29T01:48:32.634Z,-0.70
2018-12-29T01:51:02.055Z,-0.70
2018-12-29T01:53:31.370Z,-0.70
2018-12-29T01:56:00.720Z,-0.60
2018-12-29T01:58:30.099Z,-0.60
2018-12-29T02:00:59.451Z,-0.70
2018-12-29T02:03:28.887Z,-0.70
2018-12-29T02:05:58.243Z,-0.70
2018-12-29T02:08:27.630Z,-0.60
2018-12-29T02:10:56.982Z,-0.60
2018-12-29T02:13:26.422Z,-0.60
2018-12-29T02:15:55.768Z,-0.60
2018-12-29T02:18:25.149Z,-0.60
2018-12-29T02:20:54.495Z,-0.60
2018-12-29T02:23:23.863Z,-0.60
2018-12-29T02:25:54.261Z,-0.70
2018-12-29T02:28:23.766Z,-0.60
2018-12-29T02:30:53.129Z,-0.60
2018-12-29T02:33:22.573Z,-0.60
2018-12-29T02:35:51.855Z,-0.60
2018-12-29T02:38:21.208Z,-0.60
2018-12-29T02:40:50.579Z,-0.60
2018-12-29T02:43:19.927Z,-0.60
2018-12-29T02:45:49.311Z,-0.70
2018-12-29T02:48:18.664Z,-0.70
2018-12-29T02:50:48.043Z,-0.60
2018-12-29T02:53:17.398Z,-0.60
2018-12-29T02:55:46.771Z,-0.70
2018-12-29T02:58:16.133Z,-0.70
2018-12-29T03:00:45.503Z,-0.60
2018-12-29T03:03:14.885Z,-0.60
2018-12-29T03:05:44.256Z,-0.60
2018-12-29T03:08:13.603Z,-0.60
2018-12-29T03:10:42.984Z,-0.60
2018-12-29T03:13:12.332Z,-0.60
2018-12-29T03:15:42.075Z,-0.60
2018-12-29T03:18:11.367Z,-0.60
2018-12-29T03:20:40.749Z,-0.60
2018-12-29T03:23:10.107Z,-0.60
2018-12-29T03:25:39.476Z,-0.70
2018-12-29T03:28:08.841Z,-0.60
2018-12-29T03:30:38.244Z,-0.60
2018-12-29T03:33:07.583Z,-0.60
2018-12-29T03:35:36.971Z,-0.60
2018-12-29T03:38:06.335Z,-0.60
2018-12-29T03:40:35.835Z,-0.60
2018-12-29T03:43:05.216Z,-0.50
2018-12-29T03:45:34.567Z,-0.50
2018-12-29T03:48:03.948Z,-0.50
2018-12-29T03:50:33.309Z,-0.50
2018-12-29T03:53:02.887Z,-0.50
2018-12-29T03:55:32.263Z,-0.50
2018-12-29T03:58:01.639Z,-0.50
2018-12-29T04:00:30.999Z,-0.40
2018-12-29T04:03:00.404Z,-0.40
2018-12-29T04:05:29.756Z,-0.40
2018-12-29T04:07:59.147Z,-0.40
2018-12-29T04:10:28.503Z,-0.40
2018-12-29T04:13:00.034Z,-0.40
2018-12-29T04:15:29.497Z,-0.40
2018-12-29T04:17:58.872Z,-0.40
2018-12-29T04:20:28.308Z,-0.40
2018-12-29T04:22:57.713Z,-0.40
2018-12-29T04:25:27.124Z,-0.40
2018-12-29T04:27:56.526Z,-0.40
2018-12-29T04:30:25.897Z,-0.40
2018-12-29T04:32:55.350Z,-0.40
2018-12-29T04:35:24.767Z,-0.40
2018-12-29T04:37:54.155Z,-0.40
2018-12-29T04:40:23.526Z,-0.40
2018-12-29T04:42:52.926Z,-0.40
2018-12-29T04:45:22.290Z,-0.40
2018-12-29T04:47:51.671Z,-0.40
2018-12-29T04:50:21.067Z,-0.30
2018-12-29T04:52:50.439Z,-0.30
2018-12-29T04:55:19.879Z,-0.40
2018-12-29T04:57:49.255Z,-0.40
2018-12-29T05:00:18.650Z,-0.40
2018-12-29T05:02:48.030Z,-0.40
2018-12-29T05:05:17.390Z,-0.40
2018-12-29T05:07:46.763Z,-0.40
2018-12-29T05:10:16.154Z,-0.40
2018-12-29T05:12:45.535Z,-0.30
2018-12-29T05:15:14.947Z,-0.30
2018-12-29T05:17:44.319Z,-0.30
2018-12-29T05:20:13.713Z,-0.30
2018-12-29T05:22:43.111Z,-0.30
2018-12-29T05:25:12.503Z,-0.30
2018-12-29T05:27:41.866Z,-0.30
2018-12-29T05:30:11.266Z,-0.30
2018-12-29T05:32:40.639Z,-0.30
2018-12-29T05:35:10.043Z,-0.30
2018-12-29T05:37:39.403Z,-0.20
2018-12-29T05:40:08.796Z,-0.20
2018-12-29T05:42:38.166Z,-0.20
2018-12-29T05:45:07.571Z,-0.20
2018-12-29T05:47:36.946Z,-0.20
2018-12-29T05:50:06.411Z,-0.10
2018-12-29T05:52:35.795Z,-0.10
2018-12-29T05:55:05.308Z,-0.10
2018-12-29T05:57:34.648Z,-0.10
2018-12-29T06:00:04.570Z,0.00
2018-12-29T06:02:34.043Z,0.00
2018-12-29T06:05:03.415Z,-0.10
2018-12-29T06:07:32.838Z,-0.10
2018-12-29T06:10:02.212Z,-0.10
2018-12-29T06:12:31.607Z,-0.10
2018-12-29T06:15:00.970Z,0.00
2018-12-29T06:17:30.359Z,0.00
2018-12-29T06:19:59.728Z,0.00
2018-12-29T06:22:29.115Z,0.00
2018-12-29T06:24:58.486Z,0.00
2018-12-29T06:27:27.871Z,0.00
2018-12-29T06:29:57.255Z,0.00
2018-12-29T06:32:26.650Z,-0.10
2018-12-29T06:34:56.031Z,-0.10
2018-12-29T06:37:25.439Z,-0.10
2018-12-29T06:39:54.823Z,-0.10
2018-12-29T06:42:24.202Z,-0.10
2018-12-29T06:44:53.583Z,-0.10
2018-12-29T06:47:22.975Z,-0.10
2018-12-29T06:49:52.383Z,-0.10
2018-12-29T06:52:21.926Z,-0.10
2018-12-29T06:54:51.304Z,-0.10
2018-12-29T06:57:20.679Z,-0.10
2018-12-29T06:59:50.059Z,0.00
2018-12-29T07:02:19.450Z,0.00
2018-12-29T07:04:48.837Z,0.00
2018-12-29T07:07:18.199Z,0.00
2018-12-29T07:09:47.588Z,0.00
2018-12-29T07:12:16.947Z,0.00
2018-12-29T07:14:46.327Z,0.00
2018-12-29T07:17:15.743Z,0.00
2018-12-29T07:19:45.136Z,0.00
2018-12-29T07:22:14.500Z,0.00
2018-12-29T07:24:43.883Z,0.10
2018-12-29T07:27:13.252Z,0.10
2018-12-29T07:29:42.642Z,0.10
2018-12-29T07:32:12.054Z,0.10
2018-12-29T07:34:41.448Z,0.10
2018-12-29T07:37:10.820Z,0.10
2018-12-29T07:39:40.219Z,0.10
2018-12-29T07:42:09.579Z,0.10
2018-12-29T07:44:38.996Z,0.10
2018-12-29T07:47:08.363Z,0.10
2018-12-29T07:49:37.727Z,0.10
2018-12-29T07:52:07.123Z,0.20
2018-12-29T07:54:36.495Z,0.20
2018-12-29T07:57:06.008Z,0.20
2018-12-29T07:59:35.375Z,0.20
2018-12-29T08:02:04.790Z,0.20
2018-12-29T08:04:34.156Z,0.30
2018-12-29T08:07:03.551Z,0.30
2018-12-29T08:09:32.924Z,0.30
2018-12-29T08:12:02.310Z,0.40
2018-12-29T08:14:31.671Z,0.40
2018-12-29T08:17:01.067Z,0.40
2018-12-29T08:19:30.437Z,0.40
2018-12-29T08:21:59.827Z,0.50
2018-12-29T08:24:29.199Z,0.50
2018-12-29T08:26:58.627Z,0.50
2018-12-29T08:29:27.982Z,0.50
2018-12-29T08:31:57.358Z,0.50
2018-12-29T08:34:26.651Z,0.50
2018-12-29T08:36:56.051Z,0.50
2018-12-29T08:39:25.423Z,0.50
2018-12-29T08:41:54.828Z,0.50
2018-12-29T08:44:24.207Z,0.50
2018-12-29T08:46:53.563Z,0.50
2018-12-29T08:49:22.952Z,0.50
2018-12-29T08:51:52.315Z,0.60
2018-12-29T08:54:21.704Z,0.60
2018-12-29T08:56:51.072Z,0.60
2018-12-29T08:59:20.459Z,0.60
2018-12-29T09:01:49.827Z,0.70
2018-12-29T09:04:19.238Z,0.70
2018-12-29T09:06:48.603Z,0.70
2018-12-29T09:09:18.060Z,0.80
2018-12-29T09:11:47.419Z,0.80
2018-12-29T09:14:16.803Z,0.80
2018-12-29T09:16:46.171Z,0.80
2018-12-29T09:19:15.559Z,0.80
2018-12-29T09:21:44.923Z,0.90
2018-12-29T09:24:14.306Z,0.90
2018-12-29T09:26:43.675Z,1.00
2018-12-29T09:29:13.064Z,1.00
2018-12-29T09:31:42.464Z,1.10
2018-12-29T09:34:11.867Z,1.10
2018-12-29T09:36:41.244Z,1.20
2018-12-29T09:39:10.627Z,1.20
2018-12-29T09:41:40.007Z,1.30
2018-12-29T09:44:09.406Z,1.40
2018-12-29T09:46:38.810Z,1.40
2018-12-29T09:49:08.208Z,1.40
2018-12-29T09:51:37.584Z,1.40
2018-12-29T09:54:06.971Z,1.40
2018-12-29T09:56:36.358Z,1.40
2018-12-29T09:59:05.743Z,1.50
2018-12-29T10:01:35.122Z,1.50
2018-12-29T10:04:04.505Z,1.60
2018-12-29T10:06:33.899Z,1.60
2018-12-29T10:09:03.766Z,1.60
2018-12-29T10:11:33.154Z,1.60
2018-12-29T10:14:02.531Z,1.60
2018-12-29T10:16:31.915Z,1.60
2018-12-29T10:19:01.299Z,1.70
2018-12-29T10:21:30.682Z,1.60
2018-12-29T10:24:00.051Z,1.60
2018-12-29T10:26:29.439Z,1.60
2018-12-29T10:28:58.818Z,1.70
2018-12-29T10:31:28.202Z,1.60
2018-12-29T10:33:57.577Z,1.60
2018-12-29T10:36:26.954Z,1.70
2018-12-29T10:38:56.546Z,1.70
2018-12-29T10:41:25.975Z,1.60
2018-12-29T10:43:55.346Z,1.70
2018-12-29T10:46:25.642Z,1.70
2018-12-29T10:48:55.011Z,1.70
2018-12-29T10:51:24.403Z,1.80
2018-12-29T10:53:53.810Z,1.90
2018-12-29T10:56:23.230Z,1.90
2018-12-29T10:58:52.595Z,1.90
2018-12-29T11:01:21.979Z,1.80
2018-12-29T11:03:51.362Z,1.70
2018-12-29T11:06:20.761Z,1.70
2018-12-29T11:08:50.123Z,1.70
2018-12-29T11:11:19.504Z,1.60
2018-12-29T11:13:48.858Z,1.60
2018-12-29T11:16:21.856Z,1.60
2018-12-29T11:18:51.214Z,1.60
2018-12-29T11:21:20.618Z,1.60
2018-12-29T11:23:49.981Z,1.60
2018-12-29T11:26:19.346Z,1.50
2018-12-29T11:28:48.739Z,1.60
2018-12-29T11:31:18.095Z,1.60
2018-12-29T11:33:47.481Z,1.60
2018-12-29T11:36:16.847Z,1.50
2018-12-29T11:38:46.227Z,1.60
2018-12-29T11:41:15.586Z,1.60
2018-12-29T11:43:44.967Z,1.60
2018-12-29T11:46:14.334Z,1.60
2018-12-29T11:48:43.718Z,1.70
2018-12-29T11:51:13.087Z,1.70
2018-12-29T11:53:42.472Z,1.70
2018-12-29T11:56:11.831Z,1.80
2018-12-29T11:58:41.207Z,1.80
2018-12-29T12:01:10.566Z,1.80
2018-12-29T12:03:40.179Z,1.80
2018-12-29T12:06:09.567Z,1.80
2018-12-29T12:08:38.959Z,1.80
2018-12-29T12:11:08.319Z,1.80
2018-12-29T12:13:37.955Z,1.80
2018-12-29T12:16:07.311Z,1.80
2018-12-29T12:18:36.711Z,1.70
2018-12-29T12:21:06.062Z,1.70
2018-12-29T12:23:35.473Z,1.70
2018-12-29T12:26:05.051Z,1.70
2018-12-29T12:28:34.429Z,1.70
2018-12-29T12:31:03.811Z,1.80
2018-12-29T12:33:33.183Z,1.80
2018-12-29T12:36:02.571Z,1.80
2018-12-29T12:38:31.935Z,1.80
2018-12-29T12:41:01.330Z,1.80
2018-12-29T12:43:30.698Z,1.80
2018-12-29T12:46:00.442Z,1.80
2018-12-29T12:48:29.803Z,1.80
2018-12-29T12:50:59.391Z,1.80
2018-12-29T12:53:28.754Z,1.80
2018-12-29T12:55:58.149Z,1.70
2018-12-29T12:58:27.711Z,1.80
2018-12-29T13:00:57.300Z,1.70
2018-12-29T13:03:26.984Z,1.70
2018-12-29T13:05:56.365Z,1.70
2018-12-29T13:08:25.725Z,1.70
2018-12-29T13:10:55.116Z,1.70
2018-12-29T13:13:24.474Z,1.80
2018-12-29T13:15:53.859Z,1.80
2018-12-29T13:18:23.279Z,1.90
2018-12-29T13:20:52.658Z,1.90
2018-12-29T13:23:22.018Z,1.90
2018-12-29T13:25:51.403Z,1.90
2018-12-29T13:28:21.119Z,1.90
2018-12-29T13:30:50.500Z,1.90
2018-12-29T13:33:19.856Z,1.90
2018-12-29T13:35:49.308Z,2.00
2018-12-29T13:38:18.666Z,2.00
2018-12-29T13:40:48.051Z,2.00
2018-12-29T13:43:17.435Z,2.00
2018-12-29T13:45:46.837Z,2.00
2018-12-29T13:48:20.527Z,2.00
2018-12-29T13:50:47.212Z,2.00
2018-12-29T13:53:16.586Z,2.00
2018-12-29T13:55:45.950Z,2.00
2018-12-29T13:58:15.333Z,2.10
2018-12-29T14:00:44.691Z,2.10
2018-12-29T14:03:14.298Z,2.00
2018-12-29T14:05:43.656Z,2.10
2018-12-29T14:08:13.050Z,2.10
2018-12-29T14:10:42.414Z,2.00
2018-12-29T14:13:11.790Z,2.00
2018-12-29T14:15:41.150Z,1.90
2018-12-29T14:18:10.540Z,1.90
2018-12-29T14:20:39.903Z,1.90
2018-12-29T14:23:09.286Z,1.90
2018-12-29T14:25:38.963Z,2.00
2018-12-29T14:28:08.359Z,2.00
2018-12-29T14:30:37.742Z,2.00
2018-12-29T14:33:07.099Z,2.00
2018-12-29T14:35:36.491Z,2.00
2018-12-29T14:38:05.930Z,2.00
2018-12-29T14:40:35.312Z,2.00
2018-12-29T14:43:04.683Z,1.90
2018-12-29T14:45:34.099Z,1.90
2018-12-29T14:48:03.430Z,2.00
2018-12-29T14:50:32.814Z,2.00
2018-12-29T14:53:02.219Z,1.90
2018-12-29T14:55:31.617Z,1.90
2018-12-29T14:58:01.011Z,2.00
2018-12-29T15:00:30.687Z,2.00
2018-12-29T15:03:00.076Z,2.00
2018-12-29T15:05:29.475Z,1.90
2018-12-29T15:07:58.839Z,1.90
2018-12-29T15:10:29.478Z,1.90
2018-12-29T15:12:58.891Z,2.00
2018-12-29T15:15:28.288Z,2.00
2018-12-29T15:17:57.642Z,2.00
2018-12-29T15:20:27.340Z,2.00
2018-12-29T15:22:56.998Z,2.00
2018-12-29T15:25:26.410Z,2.00
2018-12-29T15:27:55.779Z,2.00
2018-12-29T15:30:25.175Z,2.00
2018-12-29T15:32:54.542Z,2.00
2018-12-29T15:35:23.971Z,2.00
2018-12-29T15:37:53.539Z,2.00
2018-12-29T15:40:22.901Z,1.90
2018-12-29T15:42:52.287Z,1.90
2018-12-29T15:45:21.847Z,2.00
2018-12-29T15:47:51.223Z,2.00
2018-12-29T15:50:20.589Z,2.00
2018-12-29T15:52:50.283Z,2.00
2018-12-29T15:55:19.654Z,2.00
2018-12-29T15:57:49.103Z,2.00
2018-12-29T16:00:18.463Z,2.00
2018-12-29T16:02:47.867Z,2.10
2018-12-29T16:05:17.289Z,2.10
2018-12-29T16:07:46.978Z,2.10
2018-12-29T16:10:16.338Z,2.10
2018-12-29T16:12:45.723Z,2.10
2018-12-29T16:15:15.286Z,2.10
2018-12-29T16:17:44.679Z,2.10
2018-12-29T16:20:14.044Z,2.10
2018-12-29T16:22:43.435Z,2.20
2018-12-29T16:25:12.835Z,2.10
2018-12-29T16:27:42.209Z,2.10
2018-12-29T16:30:11.628Z,2.10
2018-12-29T16:32:40.986Z,2.10
2018-12-29T16:35:10.351Z,2.20
2018-12-29T16:37:39.738Z,2.10
2018-12-29T16:40:09.108Z,2.10
2018-12-29T16:42:38.491Z,2.10
2018-12-29T16:45:07.863Z,2.20
2018-12-29T16:47:37.292Z,2.20
2018-12-29T16:50:07.256Z,2.20
2018-12-29T16:52:36.686Z,2.20
2018-12-29T16:55:06.419Z,2.20
2018-12-29T16:57:35.787Z,2.20
2018-12-29T17:00:05.699Z,2.30
2018-12-29T17:02:35.070Z,2.20
2018-12-29T17:05:04.975Z,2.20
2018-12-29T17:07:34.331Z,2.20
2018-12-29T17:10:03.763Z,2.20
2018-12-29T17:12:33.127Z,2.20
2018-12-29T17:15:02.661Z,2.20
2018-12-29T17:17:32.101Z,2.30
2018-12-29T17:20:01.702Z,2.30
2018-12-29T17:22:31.370Z,2.30
2018-12-29T17:25:00.762Z,2.30
2018-12-29T17:27:30.123Z,2.30
2018-12-29T17:29:59.711Z,2.30
2018-12-29T17:32:29.279Z,2.30
2018-12-29T17:34:58.676Z,2.30
2018-12-29T17:37:28.049Z,2.30
2018-12-29T17:39:57.432Z,2.30
2018-12-29T17:42:26.994Z,2.30
2018-12-29T17:44:56.385Z,2.30
2018-12-29T17:47:25.779Z,2.30
2018-12-29T17:49:55.446Z,2.40
2018-12-29T17:52:24.820Z,2.40
2018-12-29T17:54:54.588Z,2.40
2018-12-29T17:57:23.983Z,2.40
2018-12-29T17:59:53.352Z,2.40
2018-12-29T18:02:22.743Z,2.50
2018-12-29T18:04:52.123Z,2.50
2018-12-29T18:07:21.723Z,2.50
2018-12-29T18:09:57.118Z,2.50
2018-12-29T18:12:22.203Z,2.50
2018-12-29T18:14:51.967Z,2.50
2018-12-29T18:17:21.364Z,2.50
2018-12-29T18:19:50.783Z,2.50
2018-12-29T18:22:20.179Z,2.50
2018-12-29T18:24:49.539Z,2.50
2018-12-29T18:27:18.943Z,2.40
2018-12-29T18:29:49.631Z,2.40
2018-12-29T18:32:19.577Z,2.40
2018-12-29T18:34:50.134Z,2.30
2018-12-29T18:37:20.973Z,2.30
2018-12-29T18:39:51.839Z,2.30
2018-12-29T18:42:22.501Z,2.30
2018-12-29T18:44:54.408Z,2.40
2018-12-29T18:47:25.468Z,2.40
2018-12-29T18:49:56.028Z,2.40
2018-12-29T18:52:27.884Z,2.40
2018-12-29T18:54:57.292Z,2.40
2018-12-29T18:57:27.675Z,2.40
2018-12-29T19:00:02.149Z,2.50
2018-12-29T19:02:31.656Z,2.50
2018-12-29T19:05:01.066Z,2.50
2018-12-29T19:07:34.275Z,2.50
2018-12-29T19:10:04.546Z,2.60
2018-12-29T19:12:33.923Z,2.60
2018-12-29T19:15:03.339Z,2.60
2018-12-29T19:17:33.027Z,2.60
2018-12-29T19:20:02.715Z,2.60
2018-12-29T19:22:32.111Z,2.60
2018-12-29T19:25:01.499Z,2.60
2018-12-29T19:27:30.851Z,2.60
2018-12-29T19:30:00.290Z,2.60
2018-12-29T19:32:29.659Z,2.60
2018-12-29T19:34:59.417Z,2.60
2018-12-29T19:37:28.806Z,2.60
2018-12-29T19:39:58.496Z,2.60
2018-12-29T19:42:27.846Z,2.60
2018-12-29T19:44:57.304Z,2.60
2018-12-29T19:47:26.716Z,2.60
2018-12-29T19:49:56.423Z,2.60
2018-12-29T19:52:25.778Z,2.70
2018-12-29T19:54:55.165Z,2.60
2018-12-29T19:57:24.951Z,2.60
2018-12-29T19:59:54.309Z,2.60
2018-12-29T20:02:23.988Z,2.70
2018-12-29T20:04:53.674Z,2.60
2018-12-29T20:07:23.359Z,2.60
2018-12-29T20:09:52.731Z,2.60
2018-12-29T20:12:22.147Z,2.70
2018-12-29T20:14:51.527Z,2.60
2018-12-29T20:17:20.925Z,2.70
2018-12-29T20:19:50.609Z,2.70
2018-12-29T20:22:19.978Z,2.70
2018-12-29T20:24:49.335Z,2.70
2018-12-29T20:27:18.728Z,2.70
2018-12-29T20:29:48.099Z,2.70
2018-12-29T20:32:17.682Z,2.80
2018-12-29T20:34:47.057Z,2.80
2018-12-29T20:37:16.442Z,2.80
2018-12-29T20:39:45.809Z,2.80
2018-12-29T20:42:15.192Z,2.80
2018-12-29T20:44:44.868Z,2.80
2018-12-29T20:47:14.243Z,2.80
2018-12-29T20:49:43.615Z,2.80
2018-12-29T20:52:13.003Z,2.80
2018-12-29T20:54:42.374Z,2.80
2018-12-29T20:57:12.055Z,2.80
2018-12-29T20:59:41.418Z,2.80
2018-12-29T21:02:10.777Z,2.80
2018-12-29T21:04:40.188Z,2.80
2018-12-29T21:07:09.559Z,2.80
2018-12-29T21:09:38.944Z,2.80
2018-12-29T21:12:08.310Z,2.80
2018-12-29T21:14:37.703Z,2.80
2018-12-29T21:17:07.127Z,2.80
2018-12-29T21:19:36.536Z,2.80
2018-12-29T21:22:07.413Z,2.70
2018-12-29T21:24:36.878Z,2.70
2018-12-29T21:27:06.222Z,2.70
2018-12-29T21:29:35.658Z,2.80
2018-12-29T21:32:05.022Z,2.80
2018-12-29T21:34:34.420Z,2.80
2018-12-29T21:37:04.114Z,2.80
2018-12-29T21:39:33.491Z,2.80
2018-12-29T21:42:02.847Z,2.80
2018-12-29T21:44:32.242Z,2.80
2018-12-29T21:47:01.594Z,2.80
2018-12-29T21:49:31.274Z,2.80
2018-12-29T21:52:00.672Z,2.80
2018-12-29T21:54:30.059Z,2.80
2018-12-29T21:56:59.406Z,2.80
2018-12-29T21:59:28.843Z,2.80
2018-12-29T22:01:58.407Z,2.80
2018-12-29T22:04:28.107Z,2.80
2018-12-29T22:06:57.471Z,2.80
2018-12-29T22:09:26.855Z,2.80
2018-12-29T22:11:56.243Z,2.80
2018-12-29T22:14:25.634Z,2.80
2018-12-29T22:16:55.016Z,2.80
2018-12-29T22:19:24.386Z,2.90
2018-12-29T22:21:53.765Z,2.90
2018-12-29T22:24:23.131Z,2.90
2018-12-29T22:26:52.507Z,2.90
2018-12-29T22:29:21.866Z,2.90
2018-12-29T22:31:51.243Z,2.90
2018-12-29T22:34:20.613Z,2.90
2018-12-29T22:36:49.991Z,3.00
2018-12-29T22:39:19.364Z,3.00
2018-12-29T22:41:48.754Z,3.10
2018-12-29T22:44:18.115Z,3.10
2018-12-29T22:46:47.554Z,3.10
2018-12-29T22:49:16.912Z,3.10
2018-12-29T22:51:46.291Z,3.10
2018-12-29T22:54:15.844Z,3.20
2018-12-29T22:56:45.234Z,3.20
2018-12-29T22:59:14.619Z,3.20
2018-12-29T23:01:43.983Z,3.20
2018-12-29T23:04:13.390Z,3.30
2018-12-29T23:06:42.767Z,3.30
2018-12-29T23:09:12.450Z,3.30
2018-12-29T23:11:41.815Z,3.30
2018-12-29T23:14:11.200Z,3.30
2018-12-29T23:16:40.580Z,3.30
2018-12-29T23:19:10.010Z,3.30
2018-12-29T23:21:39.380Z,3.30
2018-12-29T23:24:08.983Z,3.40
2018-12-29T23:26:38.355Z,3.40
2018-12-29T23:29:07.951Z,3.40
2018-12-29T23:31:37.314Z,3.40
2018-12-29T23:34:06.699Z,3.40
2018-12-29T23:36:36.071Z,3.40
2018-12-29T23:39:05.970Z,3.50
2018-12-29T23:41:35.331Z,3.50
2018-12-29T23:44:04.719Z,3.50
2018-12-29T23:46:34.079Z,3.60
2018-12-29T23:49:03.466Z,3.70
2018-12-29T23:51:32.815Z,3.60
2018-12-29T23:54:02.207Z,3.70
2018-12-29T23:56:31.872Z,3.70
2018-12-29T23:59:01.250Z,3.70
